Airfield :
LOGIN :

Register | Disclaimer

   EN    FR    IT 

 










Legend :    VFR   Marginal VFR   IFR   Intensive IFR   Very Intensive IFR
Visi :
Ceiling :
>= 8 km
>= 3000ft
5 to 8 km
1000 to 3000 ft
1500m to 5 km
500 to 1000 ft
800 to 1500m
200 to 500 ft
< 800m
< 200 ft
Symbols :   Thunderstorms  Fog  Heavy snow  Heavy precipitations  Wind > 20 kt
SIGMETs :     Misc.  Thunderstorms  Icing  Turbulence  Mountain Waves  Volcanic Ashes






- Airport Elevation : 33 ft
- IATA code : MHZ


EGUN - RAF Mildenhall

CURRENT METAR :
  • 230755Z 22009KT 9999 FEW010 BKN100 13/10 A2972 RMK AO2A SLP062 WND DATA ESTMD RVRNO $

EXPIRED METARs :
  • 230655Z 21009G15KT 9999 FEW006 SCT060 BKN100 A2972 RMK AO2A SLP062 WND DATA ESTMD RVRNO $
  • 230633Z 20009KT 9999 FEW006 SCT009 BKN100 12/10 A2972 RMK AO2A SLP062 WND DATA ESTMD RVRNO $
  • 230555Z 21008KT 9999 BKN004 OVC006 12/10 A2972 RMK AO2A SLP065 WND DATA ESTMD RVRNO $
  • 230525Z 22006KT 9999 SCT005 BKN007 11/10 A2971 RMK AO2A SLP069 WND DATA ESTMD RVRNO $

TAF AMD TAF EGUN
Valid from the 23 at 06:00 until the 24 at 10:00 UTC


230635Z 2306/2410 18009KT 8000 BR SCT010 BKN020 QNH2974INS
TEMPO 2306/2308 BKN010
BECMG 2307/2308 22010G15KT 9999 NSW BKN020 QNH2974INS
TEMPO 2310/2316 23010G20KT 8000 -SHRA
BECMG 2320/2321 23012KT 9999 SCT015 QNH2977INS
BECMG 2402/2403 20010G15KT 9999 BKN050 QNH2971INS
BECMG 2406/2407 19010G20KT 9999 BKN050 QNH2968INS
BECMG 2408/2409 18010G25KT 9999 BKN020 QNH2965INS TX14/2312Z TN07/2401Z



MET'MAP, your aeronautical weather chart ! - Copyright ORBIFLY December 2007 - Disclaimer

ORBIFLY MET'MAP TEAM :

Programming & Development : Alexandra Zaïnal
Concept & original design : Baudouin d'Aumeries
Assistance for programming : Marc-Olivier Méhu
Technical & hardware support : Manuel Goepfert

Contact : metmap@orbifly.com




SOURCES & CREDITS :

   NOAA